Main page
METAR-TAF:

METAR-TAF

Airports :

Balıkesir Airport

Balikesir, Turkey

latitude: 39-37N, longitude: 027-55E, elevation: 101 m

Current weather observation

The report was made 1 hour and 8 minutes ago, at 11:50 UTC
Wind 21 kt from the North/Northeast
Temperature 31°C
Humidity 40%
Pressure 1014 hPa
Visibility 10 km or more
no clouds below 1500 m and no cumulonimbus

METAR: LTBF 221150Z 02021KT CAVOK 31/16 Q1014 NOSIG

Time: 15:58 (12:58 UTC)

Forecast

The report was made 2 hours and 18 minutes ago, at 10:40 UTC
Forecast valid from 22 at 12 UTC to 22 at 21 UTC
Wind 18 kt from the North
Visibility 10 km or more
no clouds below 1500 m and no cumulonimbus

TAF: LTBF 221040Z 2212/2221 01018KT CAVOK

Weather observations and forecasts of more than 4000 airports (METAR and TAF reports).

The available stations are represented by yellow and red dots on the map.

Hover mouse over dot to see the name of the station.

Then click to see weather observations and forecasts.

To change the map : click on the green buttons with a black cross to zoom in, on the green button with a dash to zoom out, or on the green arrows for adjacent maps.


METAR-TAF: